createdAt,value
2018-05-10T00:00:29.616Z,98265.58
2018-05-10T00:02:58.048Z,98264.39
2018-05-10T00:05:26.429Z,98272.47
2018-05-10T00:07:55.665Z,98273.05
2018-05-10T00:10:24.264Z,98272.74
2018-05-10T00:12:52.653Z,98272.58
2018-05-10T00:15:21.039Z,98268.02
2018-05-10T00:17:49.425Z,98264.44
2018-05-10T00:20:18.444Z,98263.46
2018-05-10T00:22:47.398Z,98271.64
2018-05-10T00:25:16.161Z,98261.61
2018-05-10T00:27:44.346Z,98276.04
2018-05-10T00:30:12.600Z,98263.06
2018-05-10T00:32:40.994Z,98261.22
2018-05-10T00:35:09.723Z,98267.24
2018-05-10T00:37:38.100Z,98261.88
2018-05-10T00:40:10.171Z,98264.68
2018-05-10T00:42:38.657Z,98262.36
2018-05-10T00:45:09.543Z,98262.73
2018-05-10T00:47:37.924Z,98264.30
2018-05-10T00:50:07.595Z,98259.08
2018-05-10T00:52:37.855Z,98259.38
2018-05-10T00:55:06.152Z,98260.70
2018-05-10T00:57:35.234Z,98263.91
2018-05-10T01:00:03.382Z,98260.09
2018-05-10T01:02:31.765Z,98261.58
2018-05-10T01:05:00.178Z,98265.67
2018-05-10T01:07:28.557Z,98264.31
2018-05-10T01:09:56.929Z,98267.11
2018-05-10T01:12:25.306Z,98262.62
2018-05-10T01:14:53.709Z,98262.06
2018-05-10T01:17:22.093Z,98262.70
2018-05-10T01:19:50.480Z,98258.52
2018-05-10T01:22:18.859Z,98265.16
2018-05-10T01:24:47.248Z,98264.41
2018-05-10T01:27:15.619Z,98260.66
2018-05-10T01:29:44.035Z,98261.76
2018-05-10T01:32:12.414Z,98249.96
2018-05-10T01:34:40.296Z,98250.81
2018-05-10T01:37:08.669Z,98235.90
2018-05-10T01:39:37.048Z,98238.84
2018-05-10T01:42:05.471Z,98249.47
2018-05-10T01:44:33.864Z,98254.04
2018-05-10T01:47:02.263Z,98252.05
2018-05-10T01:49:31.237Z,98247.87
2018-05-10T01:51:59.617Z,98249.83
2018-05-10T01:54:27.993Z,98257.72
2018-05-10T01:56:56.374Z,98259.28
2018-05-10T01:59:24.755Z,98256.77
2018-05-10T02:01:53.143Z,98260.56
2018-05-10T02:04:21.524Z,98258.33
2018-05-10T02:06:49.908Z,98259.23
2018-05-10T02:09:18.288Z,98252.52
2018-05-10T02:11:46.677Z,98259.66
2018-05-10T02:14:15.070Z,98259.94
2018-05-10T02:16:43.450Z,98270.86
2018-05-10T02:19:11.826Z,98279.18
2018-05-10T02:21:40.208Z,98280.59
2018-05-10T02:24:08.590Z,98279.50
2018-05-10T02:26:36.969Z,98283.48
2018-05-10T02:29:05.370Z,98286.56
2018-05-10T02:31:33.763Z,98250.09
2018-05-10T02:34:02.160Z,98283.02
2018-05-10T02:36:30.920Z,98287.66
2018-05-10T02:38:59.440Z,98292.09
2018-05-10T02:41:27.836Z,98287.94
2018-05-10T02:43:56.213Z,98278.48
2018-05-10T02:46:25.230Z,98293.02
2018-05-10T02:48:54.223Z,98306.41
2018-05-10T02:51:22.641Z,98304.03
2018-05-10T02:53:52.753Z,98309.46
2018-05-10T02:56:21.295Z,98297.88
2018-05-10T02:58:49.675Z,98302.14
2018-05-10T03:01:18.105Z,98306.72
2018-05-10T03:03:47.335Z,98306.95
2018-05-10T03:06:15.373Z,98315.42
2018-05-10T03:08:43.781Z,98314.33
2018-05-10T03:11:12.317Z,98310.00
2018-05-10T03:13:40.742Z,98321.33
2018-05-10T03:16:09.147Z,98325.73
2018-05-10T03:18:37.521Z,98337.95
2018-05-10T03:21:05.565Z,98336.43
2018-05-10T03:23:33.976Z,98345.30
2018-05-10T03:26:02.389Z,98347.10
2018-05-10T03:28:30.813Z,98351.09
2018-05-10T03:30:59.216Z,98341.72
2018-05-10T03:33:27.589Z,98345.84
2018-05-10T03:35:57.053Z,98346.05
2018-05-10T03:38:25.649Z,98348.30
2018-05-10T03:40:54.021Z,98349.39
2018-05-10T03:43:22.414Z,98346.94
2018-05-10T03:45:50.784Z,98355.06
2018-05-10T03:48:19.175Z,98352.45
2018-05-10T03:50:47.750Z,98355.11
2018-05-10T03:53:16.125Z,98359.97
2018-05-10T03:55:47.296Z,98360.08
2018-05-10T03:58:15.685Z,98360.08
2018-05-10T04:00:44.051Z,98357.78
2018-05-10T04:06:32.206Z,98359.11
2018-05-10T04:09:11.597Z,98361.88
2018-05-10T04:11:39.989Z,98361.80
2018-05-10T04:14:08.370Z,98370.20
2018-05-10T04:16:36.756Z,98366.18
2018-05-10T04:19:05.181Z,98364.22
2018-05-10T04:21:33.552Z,98363.55
2018-05-10T04:24:01.969Z,98338.27
2018-05-10T04:26:30.357Z,98370.08
2018-05-10T04:28:59.611Z,98374.12
2018-05-10T04:31:27.986Z,98376.93
2018-05-10T04:33:56.367Z,98379.61
2018-05-10T04:36:24.529Z,98377.62
2018-05-10T04:38:53.087Z,98381.91
2018-05-10T04:41:21.476Z,98378.17
2018-05-10T04:43:49.859Z,98378.89
2018-05-10T04:46:18.297Z,98379.60
2018-05-10T04:48:46.701Z,98380.51
2018-05-10T04:51:15.086Z,98379.06
2018-05-10T04:53:43.456Z,98381.45
2018-05-10T04:56:11.839Z,98386.06
2018-05-10T04:58:40.216Z,98393.09
2018-05-10T05:01:08.634Z,98392.36
2018-05-10T05:03:37.206Z,98392.80
2018-05-10T05:06:05.300Z,98385.95
2018-05-10T05:08:33.700Z,98378.21
2018-05-10T05:11:02.076Z,98394.19
2018-05-10T05:13:30.663Z,98391.22
2018-05-10T05:15:59.061Z,98383.77
2018-05-10T05:18:27.478Z,98386.77
2018-05-10T05:20:55.852Z,98399.33
2018-05-10T05:23:24.253Z,98399.40
2018-05-10T05:25:52.791Z,98409.84
2018-05-10T05:28:21.300Z,98407.50
2018-05-10T05:30:51.124Z,98409.95
2018-05-10T05:33:19.536Z,98411.97
2018-05-10T05:35:47.919Z,98412.92
2018-05-10T05:38:16.052Z,98420.72
2018-05-10T05:40:45.269Z,98421.16
2018-05-10T05:43:14.346Z,98418.55
2018-05-10T05:45:42.939Z,98422.23
2018-05-10T05:48:11.301Z,98425.73
2018-05-10T05:50:39.703Z,98402.34
2018-05-10T05:53:08.103Z,98434.61
2018-05-10T05:55:36.485Z,98436.98
2018-05-10T05:58:04.869Z,98435.96
2018-05-10T06:00:33.252Z,98445.98
2018-05-10T06:03:02.075Z,98441.52
2018-05-10T06:05:30.474Z,98444.39
2018-05-10T06:07:58.868Z,98451.16
2018-05-10T06:10:27.248Z,98449.15
2018-05-10T06:12:55.638Z,98443.38
2018-05-10T06:15:24.053Z,98464.16
2018-05-10T06:17:52.627Z,98465.27
2018-05-10T06:20:21.984Z,98467.67
2018-05-10T06:22:50.398Z,98467.67
2018-05-10T06:25:18.779Z,98461.06
2018-05-10T06:27:47.182Z,98475.26
2018-05-10T06:30:15.569Z,98480.69
2018-05-10T06:32:43.978Z,98476.13
2018-05-10T06:35:12.410Z,98480.98
2018-05-10T06:37:41.488Z,98483.99
2018-05-10T06:40:11.416Z,98424.41
2018-05-10T06:42:39.807Z,98486.11
2018-05-10T06:45:09.089Z,98402.64
2018-05-10T06:47:37.489Z,98486.39
2018-05-10T06:50:07.072Z,98489.11
2018-05-10T06:52:35.546Z,98484.84
2018-05-10T06:55:04.444Z,98483.59
2018-05-10T06:57:34.753Z,98485.70
2018-05-10T07:00:03.154Z,98480.84
2018-05-10T07:02:31.545Z,98488.01
2018-05-10T07:04:59.953Z,98439.26
2018-05-10T07:07:28.342Z,98486.59
2018-05-10T07:09:56.981Z,98492.89
2018-05-10T07:12:25.361Z,98495.61
2018-05-10T07:14:54.672Z,98495.05
2018-05-10T07:17:23.194Z,98492.46
2018-05-10T07:19:51.605Z,98495.06
2018-05-10T07:22:19.994Z,98490.05
2018-05-10T07:24:48.621Z,98491.22
2018-05-10T07:27:17.017Z,98487.43
2018-05-10T07:29:45.447Z,98493.95
2018-05-10T07:32:13.852Z,98492.83
2018-05-10T07:34:42.258Z,98494.89
2018-05-10T07:37:10.629Z,98497.11
2018-05-10T07:39:39.100Z,98494.09
2018-05-10T07:42:07.572Z,98500.56
2018-05-10T07:44:36.070Z,98497.57
2018-05-10T07:47:04.455Z,98497.81
2018-05-10T07:49:32.826Z,98502.13
2018-05-10T07:52:01.247Z,98501.41
2018-05-10T07:54:29.745Z,98499.92
2018-05-10T07:56:58.178Z,98498.81
2018-05-10T07:59:26.556Z,98495.88
2018-05-10T08:01:54.949Z,98497.41
2018-05-10T08:04:23.116Z,98491.82
2018-05-10T08:06:51.503Z,98494.42
2018-05-10T08:09:19.902Z,98506.40
2018-05-10T08:11:47.945Z,98503.23
2018-05-10T08:14:16.329Z,98505.92
2018-05-10T08:16:45.093Z,98502.05
2018-05-10T08:19:13.475Z,98505.89
2018-05-10T08:21:41.844Z,98509.82
2018-05-10T08:24:10.289Z,98506.59
2018-05-10T08:26:38.800Z,98506.91
2018-05-10T08:29:07.240Z,98502.69
2018-05-10T08:31:35.612Z,98502.53
2018-05-10T08:34:04.001Z,98506.34
2018-05-10T08:36:32.458Z,98501.09
2018-05-10T08:39:00.986Z,98507.94
2018-05-10T08:41:29.344Z,98499.23
2018-05-10T08:43:57.719Z,98503.52
2018-05-10T08:46:26.104Z,98500.01
2018-05-10T08:48:54.532Z,98487.61
2018-05-10T08:51:22.911Z,98503.59
2018-05-10T08:53:51.305Z,98502.23
2018-05-10T08:56:19.675Z,98502.82
2018-05-10T08:58:48.051Z,98501.23
2018-05-10T09:01:16.443Z,98496.33
2018-05-10T09:03:44.818Z,98505.08
2018-05-10T09:06:12.941Z,98501.64
2018-05-10T09:08:41.358Z,98500.17
2018-05-10T09:11:09.748Z,98504.86
2018-05-10T09:13:38.272Z,98501.55
2018-05-10T09:16:06.652Z,98511.35
2018-05-10T09:18:35.948Z,98509.42
2018-05-10T09:21:04.051Z,98514.27
2018-05-10T09:23:32.425Z,98509.21
2018-05-10T09:26:00.868Z,98508.93
2018-05-10T09:28:29.906Z,98510.94
2018-05-10T09:30:58.310Z,98517.13
2018-05-10T09:33:26.699Z,98520.75
2018-05-10T09:35:56.323Z,98514.36
2018-05-10T09:38:24.702Z,98513.58
2018-05-10T09:40:58.345Z,98511.72
2018-05-10T09:43:26.780Z,98517.00
2018-05-10T09:45:55.165Z,98506.09
2018-05-10T09:48:23.545Z,98513.89
2018-05-10T09:50:51.929Z,98517.81
2018-05-10T09:53:20.310Z,98512.40
2018-05-10T09:55:48.684Z,98517.89
2018-05-10T09:58:17.081Z,98511.76
2018-05-10T10:00:45.471Z,98515.44
2018-05-10T10:03:13.965Z,98506.59
2018-05-10T10:05:42.443Z,98513.84
2018-05-10T10:08:10.864Z,98508.60
2018-05-10T10:10:39.481Z,98508.25
2018-05-10T10:13:07.875Z,98509.45
2018-05-10T10:15:36.305Z,98511.66
2018-05-10T10:18:04.875Z,98516.81
2018-05-10T10:20:33.261Z,98513.30
2018-05-10T10:23:01.852Z,98509.48
2018-05-10T10:25:30.231Z,98510.88
2018-05-10T10:27:58.613Z,98511.28
2018-05-10T10:30:27.010Z,98525.13
2018-05-10T10:32:55.436Z,98512.19
2018-05-10T10:35:23.830Z,98510.06
2018-05-10T10:37:52.807Z,98516.63
2018-05-10T10:40:21.192Z,98503.80
2018-05-10T10:42:49.600Z,98515.94
2018-05-10T10:45:18.022Z,98519.33
2018-05-10T10:47:47.186Z,98515.47
2018-05-10T10:50:15.560Z,98460.22
2018-05-10T10:52:43.985Z,98514.20
2018-05-10T10:55:12.360Z,98507.02
2018-05-10T10:57:40.459Z,98506.62
2018-05-10T11:00:08.851Z,98424.90
2018-05-10T11:02:37.227Z,98510.78
2018-05-10T11:05:05.827Z,98502.18
2018-05-10T11:07:34.399Z,98506.25
2018-05-10T11:10:02.783Z,98506.58
2018-05-10T11:12:31.821Z,98514.55
2018-05-10T11:15:00.283Z,98509.95
2018-05-10T11:17:28.800Z,98509.80
2018-05-10T11:19:57.177Z,98502.91
2018-05-10T11:22:25.586Z,98506.02
2018-05-10T11:24:53.959Z,98501.29
2018-05-10T11:27:22.220Z,98498.78
2018-05-10T11:29:50.684Z,98506.60
2018-05-10T11:32:19.116Z,98516.17
2018-05-10T11:34:47.497Z,98519.62
2018-05-10T11:37:15.869Z,98519.48
2018-05-10T11:39:44.235Z,98518.83
2018-05-10T11:42:12.329Z,98515.98
2018-05-10T11:44:40.726Z,98520.67
2018-05-10T11:47:09.114Z,98517.58
2018-05-10T11:49:37.491Z,98504.98
2018-05-10T11:52:05.866Z,98502.75
2018-05-10T11:54:34.289Z,98495.39
2018-05-10T11:57:02.690Z,98493.30
2018-05-10T11:59:31.074Z,98492.11
2018-05-10T12:01:59.652Z,98494.23
2018-05-10T12:04:28.065Z,98494.17
2018-05-10T12:06:56.139Z,98498.22
2018-05-10T12:09:24.513Z,98499.16
2018-05-10T12:11:52.905Z,98497.34
2018-05-10T12:14:21.282Z,98502.32
2018-05-10T12:16:49.652Z,98496.14
2018-05-10T12:19:18.076Z,98495.36
2018-05-10T12:21:46.427Z,98492.47
2018-05-10T12:24:14.805Z,98491.69
2018-05-10T12:26:43.185Z,98489.91
2018-05-10T12:29:11.583Z,98482.98
2018-05-10T12:31:40.465Z,98490.42
2018-05-10T12:34:08.831Z,98498.98
2018-05-10T12:36:37.217Z,98491.06
2018-05-10T12:39:05.046Z,98494.86
2018-05-10T12:41:33.432Z,98497.94
2018-05-10T12:44:01.822Z,98498.82
2018-05-10T12:46:30.217Z,98493.61
2018-05-10T12:48:59.105Z,98488.56
2018-05-10T12:51:27.565Z,98498.07
2018-05-10T12:53:55.959Z,98492.72
2018-05-10T12:56:24.446Z,98463.42
2018-05-10T12:58:53.000Z,98479.22
2018-05-10T13:01:21.403Z,98494.95
2018-05-10T13:03:49.802Z,98492.75
2018-05-10T13:06:18.182Z,98489.84
2018-05-10T13:08:46.580Z,98434.00
2018-05-10T13:11:14.986Z,98498.18
2018-05-10T13:13:43.717Z,98499.37
2018-05-10T13:16:12.167Z,98500.77
2018-05-10T13:18:40.863Z,98502.02
2018-05-10T13:21:10.230Z,98497.34
2018-05-10T13:23:38.711Z,98497.89
2018-05-10T13:26:08.637Z,98491.70
2018-05-10T13:28:37.490Z,98494.78
2018-05-10T13:31:05.927Z,98487.06
2018-05-10T13:33:34.305Z,98488.53
2018-05-10T13:36:02.700Z,98487.80
2018-05-10T13:38:32.068Z,98472.20
2018-05-10T13:41:00.502Z,98481.45
2018-05-10T13:43:28.912Z,98487.75
2018-05-10T13:45:57.288Z,98488.31
2018-05-10T13:48:25.666Z,98481.63
2018-05-10T13:50:54.081Z,98478.73
2018-05-10T13:53:22.462Z,98478.13
2018-05-10T13:55:50.842Z,98466.52
2018-05-10T13:58:19.231Z,98465.23
2018-05-10T14:00:48.185Z,98465.38
2018-05-10T14:03:16.562Z,98452.11
2018-05-10T14:05:44.952Z,98457.97
2018-05-10T14:08:13.386Z,98472.31
2018-05-10T14:10:41.785Z,98458.53
2018-05-10T14:13:10.416Z,98465.81
2018-05-10T14:15:38.846Z,98466.73
2018-05-10T14:18:07.238Z,98471.42
2018-05-10T14:20:35.613Z,98470.06
2018-05-10T14:23:03.993Z,98482.22
2018-05-10T14:25:32.377Z,98483.44
2018-05-10T14:28:00.780Z,98486.63
2018-05-10T14:30:29.154Z,98489.23
2018-05-10T14:32:57.536Z,98486.97
2018-05-10T14:35:26.118Z,98489.44
2018-05-10T14:37:54.530Z,98491.12
2018-05-10T14:40:22.919Z,98490.26
2018-05-10T14:42:51.311Z,98498.95
2018-05-10T14:45:19.683Z,98498.42
2018-05-10T14:47:48.065Z,98495.71
2018-05-10T14:50:16.464Z,98488.91
2018-05-10T14:52:44.840Z,98498.11
2018-05-10T14:55:13.223Z,98504.73
2018-05-10T14:57:41.614Z,98500.38
2018-05-10T15:00:13.170Z,98509.21
2018-05-10T15:02:42.189Z,98514.94
2018-05-10T15:05:11.792Z,98447.73
2018-05-10T15:07:40.205Z,98529.06
2018-05-10T15:10:10.022Z,98515.94
2018-05-10T15:12:38.409Z,98524.30
2018-05-10T15:15:11.761Z,98529.13
2018-05-10T15:17:41.711Z,98536.72
2018-05-10T15:20:11.817Z,98480.70
2018-05-10T15:22:40.187Z,98540.84
2018-05-10T15:25:08.941Z,98552.23
2018-05-10T15:27:37.316Z,98552.90
2018-05-10T15:30:13.690Z,98557.09
2018-05-10T15:32:42.094Z,98556.23
2018-05-10T15:35:10.471Z,98557.25
2018-05-10T15:37:38.956Z,98554.04
2018-05-10T15:40:10.327Z,98565.14
2018-05-10T15:42:38.718Z,98564.66
2018-05-10T15:45:09.011Z,98562.00
2018-05-10T15:47:37.402Z,98558.57
2018-05-10T15:50:07.758Z,98550.34
2018-05-10T15:52:36.167Z,98557.49
2018-05-10T15:55:07.199Z,98551.85
2018-05-10T15:57:35.570Z,98545.22
2018-05-10T16:00:03.853Z,98541.84
2018-05-10T16:02:33.509Z,98538.67
2018-05-10T16:05:01.912Z,98543.08
2018-05-10T16:07:31.940Z,98543.06
2018-05-10T16:10:00.348Z,98538.81
2018-05-10T16:12:28.768Z,98541.99
2018-05-10T16:14:57.353Z,98541.57
2018-05-10T16:17:25.806Z,98546.84
2018-05-10T16:19:54.232Z,98544.97
2018-05-10T16:22:22.651Z,98556.17
2018-05-10T16:24:51.052Z,98560.80
2018-05-10T16:27:19.468Z,98562.34
2018-05-10T16:29:47.873Z,98567.89
2018-05-10T16:32:16.274Z,98564.45
2018-05-10T16:34:44.861Z,98553.63
2018-05-10T16:37:13.341Z,98561.70
2018-05-10T16:39:41.850Z,98554.80
2018-05-10T16:42:10.268Z,98553.55
2018-05-10T16:44:38.680Z,98562.21
2018-05-10T16:47:07.067Z,98564.91
2018-05-10T16:49:35.466Z,98577.38
2018-05-10T16:52:03.863Z,98579.62
2018-05-10T16:54:32.265Z,98584.91
2018-05-10T16:57:00.644Z,98595.08
2018-05-10T16:59:29.752Z,98595.50
2018-05-10T17:01:58.142Z,98598.13
2018-05-10T17:04:26.529Z,98594.41
2018-05-10T17:06:54.944Z,98607.03
2018-05-10T17:09:23.333Z,98614.50
2018-05-10T17:11:51.712Z,98619.13
2018-05-10T17:14:20.169Z,98626.70
2018-05-10T17:16:48.564Z,98632.16
2018-05-10T17:19:16.980Z,98648.37
2018-05-10T17:21:45.431Z,98648.28
2018-05-10T17:24:13.564Z,98660.27
2018-05-10T17:26:43.521Z,98666.55
2018-05-10T17:29:11.922Z,98673.23
2018-05-10T17:31:40.301Z,98692.30
2018-05-10T17:34:09.670Z,98703.27
2018-05-10T17:36:38.100Z,98716.25
2018-05-10T17:39:05.933Z,98724.25
2018-05-10T17:41:34.338Z,98738.19
2018-05-10T17:44:02.740Z,98742.41
2018-05-10T17:46:31.785Z,98746.28
2018-05-10T17:49:00.337Z,98752.47
2018-05-10T17:51:29.886Z,98772.09
2018-05-10T17:54:01.586Z,98779.53
2018-05-10T17:56:30.843Z,98789.50
2018-05-10T17:58:59.272Z,98783.59
2018-05-10T18:01:28.674Z,98774.77
2018-05-10T18:03:57.063Z,98783.00
2018-05-10T18:06:25.459Z,98780.69
2018-05-10T18:08:54.102Z,98773.28
2018-05-10T18:11:22.487Z,98762.36
2018-05-10T18:13:51.226Z,98788.47
2018-05-10T18:16:19.873Z,98793.33
2018-05-10T18:18:48.281Z,98788.98
2018-05-10T18:21:16.662Z,98787.86
2018-05-10T18:23:45.069Z,98793.09
2018-05-10T18:26:13.473Z,98798.56
2018-05-10T18:28:41.873Z,98806.55
2018-05-10T18:31:10.241Z,98807.61
2018-05-10T18:33:38.616Z,98815.28
2018-05-10T18:36:07.050Z,98814.95
2018-05-10T18:38:35.438Z,98821.73
2018-05-10T18:41:03.853Z,98824.95
2018-05-10T18:43:32.315Z,98828.67
2018-05-10T18:46:00.683Z,98843.00
2018-05-10T18:48:29.058Z,98847.35
2018-05-10T18:50:57.421Z,98848.11
2018-05-10T18:53:25.896Z,98842.59
2018-05-10T18:55:54.269Z,98842.17
2018-05-10T18:58:22.666Z,98848.35
2018-05-10T19:00:51.082Z,98846.54
2018-05-10T19:03:19.461Z,98849.64
2018-05-10T19:05:48.709Z,98849.21
2018-05-10T19:08:17.119Z,98843.33
2018-05-10T19:10:45.298Z,98834.83
2018-05-10T19:13:13.687Z,98836.34
2018-05-10T19:15:42.100Z,98827.12
2018-05-10T19:18:10.488Z,98834.61
2018-05-10T19:20:38.955Z,98839.85
2018-05-10T19:23:07.452Z,98848.95
2018-05-10T19:25:35.832Z,98848.81
2018-05-10T19:28:04.005Z,98847.80
2018-05-10T19:30:32.410Z,98847.75
2018-05-10T19:33:00.838Z,98851.51
2018-05-10T19:35:29.216Z,98851.34
2018-05-10T19:37:57.605Z,98851.58
2018-05-10T19:40:25.970Z,98853.08
2018-05-10T19:42:54.358Z,98841.81
2018-05-10T19:45:22.781Z,98845.89
2018-05-10T19:47:51.965Z,98854.25
2018-05-10T19:50:20.334Z,98862.09
2018-05-10T19:52:49.216Z,98866.25
2018-05-10T19:55:18.365Z,98872.06
2018-05-10T19:57:46.726Z,98870.06
2018-05-10T20:00:15.113Z,98876.45
2018-05-10T20:02:43.537Z,98879.47
2018-05-10T20:05:12.766Z,98887.59
2018-05-10T20:07:41.161Z,98890.29
2018-05-10T20:10:09.539Z,98899.00
2018-05-10T20:12:37.939Z,98905.39
2018-05-10T20:15:08.298Z,98908.56
2018-05-10T20:17:36.683Z,98903.04
2018-05-10T20:20:04.881Z,98909.39
2018-05-10T20:22:35.399Z,98910.80
2018-05-10T20:25:03.887Z,98918.59
2018-05-10T20:27:32.601Z,98921.56
2018-05-10T20:30:01.604Z,98911.63
2018-05-10T20:32:30.106Z,98914.60
2018-05-10T20:34:58.653Z,98907.39
2018-05-10T20:37:28.157Z,98912.78
2018-05-10T20:39:57.323Z,98906.08
2018-05-10T20:42:25.701Z,98910.26
2018-05-10T20:44:54.061Z,98907.27
2018-05-10T20:47:23.164Z,98909.28
2018-05-10T20:49:51.561Z,98923.01
2018-05-10T20:52:19.933Z,98930.44
2018-05-10T20:54:48.520Z,98943.20
2018-05-10T20:57:16.891Z,98945.59
2018-05-10T20:59:45.487Z,98948.87
2018-05-10T21:02:13.844Z,98950.39
2018-05-10T21:04:42.234Z,98953.23
2018-05-10T21:07:10.617Z,98957.39
2018-05-10T21:09:39.293Z,98950.44
2018-05-10T21:12:07.390Z,98963.62
2018-05-10T21:14:35.757Z,98966.09
2018-05-10T21:17:03.825Z,98972.22
2018-05-10T21:19:32.293Z,98973.64
2018-05-10T21:22:00.672Z,98976.44
2018-05-10T21:24:29.051Z,98973.72
2018-05-10T21:26:57.427Z,98980.14
2018-05-10T21:29:25.807Z,98976.14
2018-05-10T21:31:54.435Z,98983.40
2018-05-10T21:34:22.801Z,98981.36
2018-05-10T21:36:51.187Z,98974.64
2018-05-10T21:39:19.596Z,98987.34
2018-05-10T21:41:48.089Z,98988.23
2018-05-10T21:44:16.452Z,98994.28
2018-05-10T21:46:44.827Z,99003.59
2018-05-10T21:49:24.262Z,98997.30
2018-05-10T21:51:52.744Z,99017.30
2018-05-10T21:54:21.148Z,99020.53
2018-05-10T21:56:49.597Z,99025.88
2018-05-10T21:59:17.978Z,99036.78
2018-05-10T22:01:46.343Z,99039.64
2018-05-10T22:04:14.713Z,99045.42
2018-05-10T22:06:43.178Z,99038.86
2018-05-10T22:09:11.760Z,99043.12
2018-05-10T22:11:40.259Z,99044.45
2018-05-10T22:14:08.852Z,99043.14
2018-05-10T22:16:37.246Z,99048.58
2018-05-10T22:19:05.288Z,99046.94
2018-05-10T22:21:33.673Z,99046.70
2018-05-10T22:24:02.056Z,99043.17
2018-05-10T22:26:30.465Z,99008.11
2018-05-10T22:28:58.836Z,99040.13
2018-05-10T22:31:27.228Z,99045.49
2018-05-10T22:33:55.625Z,99049.05
2018-05-10T22:36:24.019Z,99041.73
2018-05-10T22:38:52.433Z,99046.13
2018-05-10T22:41:20.819Z,99042.85
2018-05-10T22:43:50.226Z,99044.33
2018-05-10T22:46:18.601Z,99051.70
2018-05-10T22:48:46.981Z,99057.03
2018-05-10T22:51:16.072Z,99066.38
2018-05-10T22:53:44.445Z,99061.16
2018-05-10T22:56:13.462Z,99060.08
2018-05-10T22:58:41.838Z,99067.20
2018-05-10T23:01:09.985Z,99064.21
2018-05-10T23:03:38.357Z,99070.87
2018-05-10T23:06:06.729Z,99067.70
2018-05-10T23:08:35.934Z,99069.31
2018-05-10T23:11:04.312Z,99075.39
2018-05-10T23:13:32.681Z,99073.73
2018-05-10T23:16:01.058Z,99073.81
2018-05-10T23:18:29.506Z,99074.19
2018-05-10T23:20:57.893Z,99086.90
2018-05-10T23:23:26.265Z,99086.86
2018-05-10T23:25:56.382Z,99089.27
2018-05-10T23:28:24.765Z,99099.70
2018-05-10T23:30:53.144Z,99087.83
2018-05-10T23:33:21.534Z,99102.31
2018-05-10T23:35:49.924Z,99099.64
2018-05-10T23:38:18.359Z,99110.76
2018-05-10T23:40:46.725Z,99107.34
2018-05-10T23:43:15.121Z,99115.59
2018-05-10T23:45:43.505Z,99116.74
2018-05-10T23:48:11.861Z,99114.81
2018-05-10T23:50:40.239Z,99115.28
2018-05-10T23:53:08.617Z,99115.05
2018-05-10T23:55:36.991Z,99125.89
2018-05-10T23:58:05.357Z,99124.80
